Time;durP1;ratioP1;P1;durP2;ratioP2;P2;SDS_P1;SDS_P2;PMS_P1;PMS_P2;Temp;Humidity;BMP_temperature;BMP_pressure;BME280_temperature;BME280_humidity;BME280_pressure;Samples;Min_cycle;Max_cycle;Signal;HPM_P1;HPM_P2
2022/07/15 00:00:26;;;;;;;9.00;1.97;;;16.20;99.90;;;;;;5093887;28;20049;-73
2022/07/15 00:02:51;;;;;;;13.10;2.20;;;16.20;99.90;;;;;;5092556;28;20309;-73
2022/07/15 00:05:17;;;;;;;9.87;2.50;;;16.20;99.90;;;;;;5094319;28;20040;-73
2022/07/15 00:07:43;;;;;;;10.10;2.13;;;16.20;99.90;;;;;;5094536;28;20051;-73
2022/07/15 00:10:15;;;;;;;11.30;2.17;;;16.20;99.90;;;;;;5094230;28;20490;-73
2022/07/15 00:12:50;;;;;;;10.40;3.00;;;16.20;99.90;;;;;;5094235;28;20036;-72
2022/07/15 00:15:17;;;;;;;9.32;2.15;;;16.20;99.90;;;;;;5094495;28;20292;-73
2022/07/15 00:17:43;;;;;;;8.80;2.63;;;16.20;99.90;;;;;;5092594;28;20044;-73
2022/07/15 00:20:11;;;;;;;12.17;2.27;;;16.20;99.90;;;;;;5094368;28;20281;-75
2022/07/15 00:22:37;;;;;;;10.13;2.07;;;16.20;99.90;;;;;;5075520;28;20040;-72
2022/07/15 00:25:03;;;;;;;10.80;2.50;;;16.20;99.90;;;;;;5092352;28;20297;-73
2022/07/15 00:27:29;;;;;;;11.67;2.90;;;16.20;99.90;;;;;;5093441;28;20281;-73
2022/07/15 00:29:55;;;;;;;9.63;2.13;;;16.20;99.90;;;;;;5092447;28;20432;-72
2022/07/15 00:32:21;;;;;;;9.63;2.10;;;16.20;99.90;;;;;;5093458;28;20039;-73
2022/07/15 00:34:46;;;;;;;11.30;2.17;;;16.20;99.90;;;;;;5097313;28;20048;-73
2022/07/15 00:37:12;;;;;;;10.40;2.50;;;16.30;99.90;;;;;;5097517;28;20052;-73
2022/07/15 00:39:38;;;;;;;11.27;2.87;;;16.30;99.90;;;;;;5096612;28;20040;-72
2022/07/15 00:42:04;;;;;;;10.23;2.10;;;16.30;99.90;;;;;;5098174;28;20052;-73
2022/07/15 00:44:30;;;;;;;11.40;2.50;;;16.30;99.90;;;;;;5097780;28;20079;-73
2022/07/15 00:46:56;;;;;;;11.70;2.37;;;16.30;99.90;;;;;;5098001;28;20819;-72
2022/07/15 00:49:22;;;;;;;10.03;1.97;;;16.30;99.90;;;;;;5097279;28;20377;-73
2022/07/15 00:51:51;;;;;;;9.13;2.13;;;16.30;99.90;;;;;;5097386;28;20281;-73
2022/07/15 00:54:23;;;;;;;8.37;2.20;;;16.30;99.90;;;;;;5097378;28;20126;-73
2022/07/15 00:56:52;;;;;;;12.03;2.50;;;16.30;99.90;;;;;;5097729;28;20308;-73
2022/07/15 00:59:21;;;;;;;12.67;3.10;;;16.30;99.90;;;;;;5097244;28;20277;-73
2022/07/15 01:01:47;;;;;;;8.00;2.20;;;16.30;99.90;;;;;;5097902;28;20385;-73
2022/07/15 01:04:13;;;;;;;9.30;2.10;;;16.20;99.90;;;;;;5097162;28;20791;-72
2022/07/15 01:06:41;;;;;;;7.90;1.70;;;16.20;99.90;;;;;;5097386;28;20282;-72
2022/07/15 01:09:06;;;;;;;8.47;1.53;;;16.10;99.90;;;;;;5097591;28;20360;-72
2022/07/15 01:11:32;;;;;;;11.37;2.97;;;16.20;99.90;;;;;;5096941;28;20369;-72
2022/07/15 01:13:59;;;;;;;10.43;2.10;;;16.20;99.90;;;;;;5096952;28;20410;-73
2022/07/15 01:16:26;;;;;;;8.07;2.00;;;16.10;99.90;;;;;;5095867;28;20480;-73
2022/07/15 01:18:52;;;;;;;10.97;2.00;;;16.10;99.90;;;;;;5096884;28;20278;-74
2022/07/15 01:21:17;;;;;;;8.03;1.70;;;16.00;99.90;;;;;;5096690;28;20278;-74
2022/07/15 01:23:43;;;;;;;9.33;2.17;;;16.00;99.90;;;;;;5096778;28;20126;-73
2022/07/15 01:26:11;;;;;;;8.37;1.90;;;16.00;99.90;;;;;;5096724;28;20051;-73
2022/07/15 01:28:37;;;;;;;8.93;2.20;;;15.90;99.90;;;;;;5096467;28;20109;-74
2022/07/15 01:31:04;;;;;;;11.13;2.20;;;15.90;99.90;;;;;;5095666;28;20287;-74
2022/07/15 01:33:31;;;;;;;10.13;2.10;;;15.80;99.90;;;;;;5097085;28;20277;-74
2022/07/15 01:35:58;;;;;;;10.50;2.37;;;15.90;99.90;;;;;;5096379;28;20442;-74
2022/07/15 01:38:24;;;;;;;11.43;2.03;;;15.90;99.90;;;;;;5096452;28;20285;-74
2022/07/15 01:40:50;;;;;;;8.83;1.97;;;15.90;99.90;;;;;;5096044;28;20297;-74
2022/07/15 01:43:16;;;;;;;12.63;1.70;;;15.90;99.90;;;;;;5096392;28;20290;-74
2022/07/15 01:45:43;;;;;;;9.27;2.13;;;15.80;99.90;;;;;;5095248;28;20048;-74
2022/07/15 01:49:21;;;;;;;9.63;1.83;;;15.80;99.90;;;;;;5096386;28;20044;-74
2022/07/15 01:51:00;;;;;;;8.93;2.10;;;15.70;99.90;;;;;;5096651;28;20622;-74
2022/07/15 01:53:27;;;;;;;9.47;2.97;;;15.70;99.90;;;;;;5096333;28;20271;-75
2022/07/15 01:55:53;;;;;;;9.70;1.80;;;15.60;99.90;;;;;;5096200;28;20331;-72
2022/07/15 01:58:19;;;;;;;9.93;2.10;;;15.60;99.90;;;;;;5096664;28;20281;-75
2022/07/15 02:00:46;;;;;;;8.10;1.57;;;15.50;99.90;;;;;;5095091;28;20087;-72
2022/07/15 02:03:11;;;;;;;14.40;2.13;;;15.50;99.90;;;;;;5095595;28;20336;-72
2022/07/15 02:05:38;;;;;;;8.27;1.83;;;15.40;99.90;;;;;;5094845;28;20306;-72
2022/07/15 02:08:03;;;;;;;7.63;1.40;;;15.40;99.90;;;;;;5096002;28;20048;-72
2022/07/15 02:10:39;;;;;;;7.67;1.37;;;15.40;99.90;;;;;;5094710;28;20286;-72
2022/07/15 02:13:13;;;;;;;5.90;1.40;;;15.40;99.90;;;;;;5094575;28;20105;-72
2022/07/15 02:15:39;;;;;;;8.40;1.80;;;15.30;99.90;;;;;;5095905;28;20323;-72
2022/07/15 02:18:06;;;;;;;5.63;1.20;;;15.30;99.90;;;;;;5094782;28;20293;-72
2022/07/15 02:20:32;;;;;;;9.30;2.30;;;15.20;99.90;;;;;;5095656;28;20289;-72
2022/07/15 02:22:58;;;;;;;9.47;2.00;;;15.20;99.90;;;;;;5095609;28;20294;-72
2022/07/15 02:25:30;;;;;;;8.17;1.50;;;15.20;99.90;;;;;;5095611;28;20282;-73
2022/07/15 02:27:57;;;;;;;8.73;1.47;;;15.10;99.90;;;;;;5095616;28;20278;-73
2022/07/15 02:30:36;;;;;;;7.90;1.50;;;15.10;99.90;;;;;;5096234;28;20277;-73
2022/07/15 02:33:03;;;;;;;6.87;1.63;;;15.10;99.90;;;;;;5077606;28;20296;-72
2022/07/15 02:35:29;;;;;;;10.10;1.60;;;15.00;99.90;;;;;;5095396;28;20278;-72
2022/07/15 02:37:55;;;;;;;6.17;1.47;;;15.00;99.90;;;;;;5095434;28;20368;-71
2022/07/15 02:40:21;;;;;;;7.93;1.50;;;14.90;99.90;;;;;;5095186;28;20320;-72
2022/07/15 02:42:52;;;;;;;6.73;1.53;;;14.80;99.90;;;;;;5094995;28;20094;-72
2022/07/15 02:45:19;;;;;;;6.87;1.70;;;14.80;99.90;;;;;;5095277;28;20282;-72
2022/07/15 02:47:45;;;;;;;6.63;1.10;;;14.80;99.90;;;;;;5095654;28;20318;-72
2022/07/15 02:50:11;;;;;;;5.10;1.20;;;14.70;99.90;;;;;;5095156;28;20347;-72
2022/07/15 02:52:37;;;;;;;5.37;1.10;;;14.70;99.90;;;;;;5095028;28;20282;-72
2022/07/15 02:55:03;;;;;;;7.17;1.37;;;14.60;99.90;;;;;;5093649;28;20071;-72
2022/07/15 02:57:29;;;;;;;7.00;1.60;;;14.50;99.90;;;;;;5093669;28;20051;-72
2022/07/15 02:59:55;;;;;;;7.70;1.47;;;14.60;99.90;;;;;;5093957;28;20294;-72
2022/07/15 03:02:20;;;;;;;7.37;1.47;;;14.50;99.90;;;;;;5094832;28;20044;-72
2022/07/15 03:04:46;;;;;;;8.33;1.50;;;14.50;99.90;;;;;;5095157;28;20070;-72
2022/07/15 03:07:13;;;;;;;6.30;1.17;;;14.50;99.90;;;;;;5077053;28;20081;-72
2022/07/15 03:09:38;;;;;;;7.83;1.50;;;14.50;99.90;;;;;;5093471;28;20297;-72
2022/07/15 03:12:04;;;;;;;7.20;1.70;;;14.50;99.90;;;;;;5095541;28;20274;-73
2022/07/15 03:14:30;;;;;;;6.60;1.70;;;14.50;99.90;;;;;;5127705;27;20357;-73
2022/07/15 03:16:56;;;;;;;9.27;2.17;;;14.40;99.90;;;;;;5094648;28;20050;-73
2022/07/15 03:19:22;;;;;;;7.60;1.10;;;14.40;99.90;;;;;;5095133;28;20055;-72
2022/07/15 03:21:48;;;;;;;7.47;1.07;;;14.30;99.90;;;;;;5094416;28;20050;-73
2022/07/15 03:24:15;;;;;;;6.43;1.40;;;14.30;99.90;;;;;;5076606;28;20757;-72
2022/07/15 03:26:40;;;;;;;4.43;1.20;;;14.30;99.90;;;;;;5093459;28;20678;-73
2022/07/15 03:29:06;;;;;;;6.70;1.30;;;14.30;99.90;;;;;;5093446;28;20318;-72
2022/07/15 03:31:32;;;;;;;3.87;1.10;;;14.30;99.90;;;;;;5093710;28;20043;-73
2022/07/15 03:33:58;;;;;;;4.77;1.17;;;14.30;99.90;;;;;;5093334;28;20044;-73
2022/07/15 03:36:24;;;;;;;6.07;1.27;;;14.30;99.90;;;;;;5094100;28;20055;-73
2022/07/15 03:38:51;;;;;;;8.43;1.60;;;14.30;99.90;;;;;;5093887;28;20087;-72
2022/07/15 03:41:21;;;;;;;5.97;1.13;;;14.30;99.90;;;;;;5092740;28;20297;-73
2022/07/15 03:43:48;;;;;;;7.67;1.60;;;14.30;99.90;;;;;;5092945;28;20355;-73
2022/07/15 03:46:16;;;;;;;6.17;1.47;;;14.30;99.90;;;;;;5094129;28;20606;-73
2022/07/15 03:48:42;;;;;;;5.67;1.30;;;14.30;99.90;;;;;;5093739;28;20534;-73
2022/07/15 03:51:09;;;;;;;4.47;1.23;;;14.30;99.90;;;;;;5093335;28;20317;-73
2022/07/15 03:53:35;;;;;;;11.60;1.70;;;14.30;99.90;;;;;;5093971;28;20051;-73
2022/07/15 03:56:01;;;;;;;7.23;1.37;;;14.20;99.90;;;;;;5094549;28;20282;-73
2022/07/15 03:58:26;;;;;;;7.00;1.50;;;14.20;99.90;;;;;;5094228;28;20044;-73
2022/07/15 04:00:52;;;;;;;4.90;1.30;;;14.30;99.90;;;;;;5093585;28;20600;-73
2022/07/15 04:03:18;;;;;;;6.53;1.60;;;14.20;99.90;;;;;;5093792;28;20040;-73
2022/07/15 04:05:44;;;;;;;6.60;1.57;;;14.30;99.90;;;;;;5093834;28;20044;-73
2022/07/15 04:08:10;;;;;;;4.43;1.43;;;14.30;99.90;;;;;;5093657;28;20089;-73
2022/07/15 04:10:36;;;;;;;7.63;1.63;;;14.30;99.90;;;;;;5094549;28;20070;-73
2022/07/15 04:13:02;;;;;;;6.13;1.40;;;14.30;99.90;;;;;;5094272;28;20637;-73
2022/07/15 04:15:28;;;;;;;7.77;1.20;;;14.30;99.90;;;;;;5093888;28;20368;-73
2022/07/15 04:17:55;;;;;;;6.00;1.40;;;14.20;99.90;;;;;;5093343;28;20327;-73
2022/07/15 04:20:21;;;;;;;5.83;1.50;;;14.30;99.90;;;;;;5093866;28;20480;-73
2022/07/15 04:22:47;;;;;;;4.77;1.27;;;14.30;99.90;;;;;;5092304;28;20320;-73
2022/07/15 04:25:17;;;;;;;5.90;1.30;;;14.30;99.90;;;;;;5093404;28;20052;-73
2022/07/15 04:27:43;;;;;;;3.97;1.43;;;14.30;99.90;;;;;;5093158;28;20052;-73
2022/07/15 04:30:09;;;;;;;4.93;1.30;;;14.30;99.90;;;;;;5092495;28;20294;-73
2022/07/15 04:32:36;;;;;;;3.07;1.20;;;14.30;99.90;;;;;;5092548;28;20087;-75
2022/07/15 04:35:05;;;;;;;6.67;1.30;;;14.30;99.90;;;;;;5092426;28;20791;-73
2022/07/15 04:37:31;;;;;;;4.90;1.33;;;14.30;99.90;;;;;;5093430;28;20322;-73
2022/07/15 04:39:57;;;;;;;7.97;1.40;;;14.20;99.90;;;;;;5093207;28;20322;-73
2022/07/15 04:42:23;;;;;;;8.77;2.17;;;14.30;99.90;;;;;;5093889;28;20056;-73
2022/07/15 04:44:48;;;;;;;3.60;1.30;;;14.30;99.90;;;;;;5093310;28;20044;-73
2022/07/15 04:47:15;;;;;;;4.30;1.30;;;14.40;99.90;;;;;;5092108;28;20044;-73
2022/07/15 04:52:26;;;;;;;5.63;1.10;;;14.60;99.90;;;;;;5093282;28;20749;-73
2022/07/15 04:54:53;;;;;;;5.30;1.20;;;14.70;99.90;;;;;;5093181;28;20055;-73
2022/07/15 04:57:19;;;;;;;5.97;1.07;;;14.80;99.90;;;;;;5093454;28;20055;-73
2022/07/15 04:59:44;;;;;;;4.10;1.10;;;14.80;99.90;;;;;;5093152;28;20285;-74
2022/07/15 05:02:10;;;;;;;6.93;1.40;;;14.80;99.90;;;;;;5093170;28;20298;-73
2022/07/15 05:04:36;;;;;;;4.53;1.10;;;14.90;99.90;;;;;;5092223;28;20482;-73
2022/07/15 05:07:02;;;;;;;7.30;1.10;;;14.90;99.90;;;;;;5091910;28;20441;-73
2022/07/15 05:09:27;;;;;;;7.27;1.40;;;14.90;99.90;;;;;;5093664;28;20054;-73
2022/07/15 05:11:53;;;;;;;4.57;1.30;;;15.00;99.90;;;;;;5075951;28;20052;-73
2022/07/15 05:14:19;;;;;;;4.23;0.97;;;15.10;99.90;;;;;;5075375;28;20055;-73
2022/07/15 05:16:46;;;;;;;6.00;1.30;;;15.10;99.90;;;;;;5093019;28;20044;-73
2022/07/15 05:19:12;;;;;;;6.30;1.20;;;15.30;99.90;;;;;;5094367;28;20055;-73
2022/07/15 05:21:37;;;;;;;2.47;0.90;;;15.30;99.90;;;;;;5096751;28;20749;-73
2022/07/15 05:24:03;;;;;;;4.17;1.30;;;15.40;99.90;;;;;;5097495;28;20101;-73
2022/07/15 05:26:29;;;;;;;5.40;1.27;;;15.40;99.90;;;;;;5096803;28;20052;-73
2022/07/15 05:28:55;;;;;;;3.07;0.80;;;15.50;99.90;;;;;;5078785;28;20343;-73
2022/07/15 05:31:22;;;;;;;2.33;0.80;;;15.60;99.90;;;;;;5096390;28;20051;-73
2022/07/15 05:33:47;;;;;;;4.50;0.87;;;15.60;99.90;;;;;;5096905;28;20052;-73
2022/07/15 05:36:14;;;;;;;9.87;1.20;;;15.60;99.90;;;;;;5096557;28;20304;-73
2022/07/15 05:38:44;;;;;;;3.87;0.97;;;15.60;99.90;;;;;;5097112;28;20040;-73
2022/07/15 05:41:09;;;;;;;4.27;0.90;;;15.70;99.90;;;;;;5097222;28;20294;-73
2022/07/15 05:43:36;;;;;;;3.47;0.77;;;15.80;99.90;;;;;;5096274;28;20302;-73
2022/07/15 05:46:02;;;;;;;4.77;0.80;;;16.00;99.90;;;;;;5095431;28;20373;-73
2022/07/15 05:48:28;;;;;;;7.97;1.90;;;16.30;99.90;;;;;;5096341;28;20280;-73
2022/07/15 05:50:54;;;;;;;2.30;0.67;;;16.50;99.90;;;;;;5096275;28;20364;-73
2022/07/15 05:53:20;;;;;;;4.20;1.10;;;16.80;99.90;;;;;;5095828;28;20082;-73
2022/07/15 05:55:46;;;;;;;4.07;0.93;;;17.00;99.90;;;;;;5130117;27;20048;-75
2022/07/15 05:58:11;;;;;;;3.57;0.80;;;17.10;99.90;;;;;;5096677;28;20359;-73
2022/07/15 06:00:37;;;;;;;3.07;1.00;;;17.20;99.90;;;;;;5096115;28;20127;-74
2022/07/15 06:03:05;;;;;;;5.07;1.10;;;17.50;99.90;;;;;;5096478;28;20081;-73
2022/07/15 06:05:31;;;;;;;3.70;0.70;;;;;;;;;;5096273;28;20285;-74
2022/07/15 06:07:57;;;;;;;5.17;1.23;;;21.40;97.30;;;;;;5095644;28;20620;-74
2022/07/15 06:10:23;;;;;;;5.80;1.50;;;21.60;99.90;;;;;;5095933;28;20048;-74
2022/07/15 06:12:49;;;;;;;4.10;0.80;;;23.00;99.50;;;;;;5095865;28;20070;-74
2022/07/15 06:15:15;;;;;;;3.87;1.07;;;;;;;;;;5095837;28;20124;-74
2022/07/15 06:17:41;;;;;;;5.00;1.20;;;24.70;85.60;;;;;;5095784;28;20044;-74
2022/07/15 06:20:08;;;;;;;3.27;1.03;;;25.40;75.50;;;;;;5095961;28;20106;-74
2022/07/15 06:22:33;;;;;;;7.33;1.17;;;25.70;68.40;;;;;;5095511;28;20407;-74
2022/07/15 06:24:59;;;;;;;2.20;1.20;;;25.50;63.10;;;;;;5096102;28;20050;-74
2022/07/15 06:27:25;;;;;;;4.83;1.33;;;25.20;60.80;;;;;;5095865;28;20059;-73
2022/07/15 06:29:51;;;;;;;4.77;1.27;;;;;;;;;;5095528;28;20048;-74
2022/07/15 06:32:17;;;;;;;5.27;1.50;;;;;;;;;;5095137;28;20079;-74
2022/07/15 06:34:44;;;;;;;4.27;1.20;;;27.50;48.70;;;;;;5095146;28;20411;-74
2022/07/15 06:37:10;;;;;;;5.87;1.40;;;;;;;;;;5095949;28;20048;-74
2022/07/15 06:39:36;;;;;;;4.97;1.00;;;28.80;50.20;;;;;;5095427;28;20081;-74
2022/07/15 06:42:02;;;;;;;2.47;0.90;;;;;;;;;;5094156;28;20451;-77
2022/07/15 06:44:28;;;;;;;3.10;1.30;;;;;;;;;;5095312;28;20511;-75
2022/07/15 06:46:54;;;;;;;4.20;1.20;;;;;;;;;;5095407;28;20480;-76
2022/07/15 06:49:20;;;;;;;3.70;1.20;;;30.50;60.90;;;;;;5095521;28;20440;-75
2022/07/15 06:51:47;;;;;;;6.10;1.30;;;30.80;69.70;;;;;;5093882;28;20080;-74
2022/07/15 06:54:13;;;;;;;5.15;1.20;;;;;;;;;;5093943;28;20094;-75
2022/07/15 06:56:39;;;;;;;4.28;1.13;;;;;;;;;;5095589;28;20047;-75
2022/07/15 06:59:05;;;;;;;2.55;1.17;;;30.90;76.10;;;;;;5095268;28;20407;-74
2022/07/15 07:01:32;;;;;;;4.28;1.30;;;30.70;40.20;;;;;;5093730;28;20047;-74
2022/07/15 07:03:58;;;;;;;4.03;1.20;;;30.80;39.80;;;;;;5094895;28;20059;-75
2022/07/15 07:06:25;;;;;;;6.68;1.40;;;30.90;39.30;;;;;;5094846;28;20048;-74
2022/07/15 07:08:52;;;;;;;2.47;1.20;;;;;;;;;;5095139;28;20069;-73
2022/07/15 07:11:18;;;;;;;4.25;1.33;;;;;;;;;;5093843;28;20048;-74
2022/07/15 07:13:44;;;;;;;3.25;1.30;;;;;;;;;;5094785;28;20047;-74
2022/07/15 07:16:10;;;;;;;3.95;1.30;;;31.40;36.90;;;;;;5093731;28;20052;-73
2022/07/15 07:18:36;;;;;;;3.60;1.17;;;;;;;;;;5094656;28;20051;-74
2022/07/15 07:21:02;;;;;;;3.60;1.30;;;;;;;;;;5094648;28;20537;-73
2022/07/15 07:23:29;;;;;;;4.32;1.50;;;;;;;;;;5094544;28;20112;-74
2022/07/15 07:25:55;;;;;;;3.25;1.42;;;;;;;;;;5094512;28;20117;-75
2022/07/15 07:28:22;;;;;;;3.03;1.30;;;;;;;;;;5095298;28;20070;-74
2022/07/15 07:30:50;;;;;;;6.13;1.30;;;;;;;;;;5094450;28;20059;-74
2022/07/15 07:33:16;;;;;;;4.15;1.48;;;31.50;72.70;;;;;;5094281;28;20112;-74
2022/07/15 07:35:43;;;;;;;4.97;1.20;;;30.30;37.70;;;;;;5094383;28;20048;-74
2022/07/15 07:38:09;;;;;;;2.95;1.20;;;29.20;38.80;;;;;;5094049;28;20102;-75
2022/07/15 07:40:35;;;;;;;3.83;1.35;;;28.00;40.20;;;;;;5093362;28;20054;-73
2022/07/15 07:43:01;;;;;;;2.95;1.10;;;;;;;;;;5093755;28;20396;-74
2022/07/15 07:45:28;;;;;;;2.47;1.05;;;25.90;42.30;;;;;;5094449;28;20052;-73
2022/07/15 07:47:55;;;;;;;5.65;1.40;;;25.80;44.70;;;;;;5092943;28;20428;-73
2022/07/15 07:50:22;;;;;;;3.90;1.00;;;26.80;44.80;;;;;;5094093;28;20039;-74
2022/07/15 07:52:47;;;;;;;4.22;1.55;;;28.00;43.60;;;;;;5094072;28;20108;-73
2022/07/15 07:55:14;;;;;;;3.55;1.00;;;29.40;42.10;;;;;;5094517;28;20468;-74
2022/07/15 07:57:51;;;;;;;3.55;1.42;;;30.30;40.20;;;;;;5093807;28;20130;-73
2022/07/15 08:00:18;;;;;;;2.05;1.02;;;30.80;38.50;;;;;;5094440;28;20044;-73
2022/07/15 08:02:44;;;;;;;2.97;0.88;;;30.40;37.70;;;;;;5093861;28;20051;-73
2022/07/15 08:05:11;;;;;;;5.13;1.10;;;29.40;37.90;;;;;;5093864;28;20134;-75
2022/07/15 08:07:37;;;;;;;5.30;1.13;;;29.10;39.50;;;;;;5093523;28;20511;-74
2022/07/15 08:10:04;;;;;;;3.63;1.40;;;28.90;39.80;;;;;;5093759;28;20507;-73
2022/07/15 08:12:30;;;;;;;2.83;1.10;;;28.10;39.50;;;;;;5093812;28;20072;-75
2022/07/15 08:14:56;;;;;;;2.97;1.30;;;28.40;40.60;;;;;;5093773;28;20081;-74
2022/07/15 08:17:23;;;;;;;3.33;1.20;;;28.90;40.40;;;;;;5093687;28;20044;-74
2022/07/15 08:19:49;;;;;;;4.15;1.15;;;29.50;39.90;;;;;;5093644;28;20044;-75
2022/07/15 08:22:14;;;;;;;2.97;1.42;;;29.30;39.00;;;;;;5093464;28;20040;-75
2022/07/15 08:24:41;;;;;;;2.28;0.90;;;28.60;39.60;;;;;;5093514;28;20094;-75
2022/07/15 08:27:08;;;;;;;2.20;1.10;;;28.50;40.50;;;;;;5093510;28;20087;-82
2022/07/15 08:29:34;;;;;;;4.90;1.20;;;28.00;40.50;;;;;;5092580;28;20048;-74
2022/07/15 08:32:00;;;;;;;3.28;1.00;;;28.50;41.50;;;;;;5093592;28;20089;-75
2022/07/15 08:34:26;;;;;;;4.38;1.00;;;29.00;40.20;;;;;;5093220;28;20044;-76
2022/07/15 08:36:52;;;;;;;5.93;1.05;;;28.70;39.60;;;;;;5092494;28;20040;-74
2022/07/15 08:39:17;;;;;;;2.88;0.90;;;27.70;39.80;;;;;;5093440;28;20048;-75
2022/07/15 08:41:45;;;;;;;2.60;0.90;;;26.90;40.80;;;;;;5092097;28;20060;-74
2022/07/15 08:44:11;;;;;;;5.32;1.00;;;;;;;;;;5093399;28;20046;-72
2022/07/15 08:46:40;;;;;;;1.75;0.82;;;25.90;42.40;;;;;;5093354;28;20604;-75
2022/07/15 08:49:28;;;;;;;2.58;0.90;;;25.60;43.00;;;;;;5075776;28;20054;-74
2022/07/15 08:51:57;;;;;;;3.30;1.17;;;25.40;44.20;;;;;;5126528;28;20109;-80
2022/07/15 08:54:23;;;;;;;2.50;0.83;;;25.10;44.30;;;;;;5095531;28;20407;-82
2022/07/15 08:56:49;;;;;;;2.93;0.97;;;24.80;44.40;;;;;;5080052;28;20051;-80
2022/07/15 08:59:16;;;;;;;3.87;1.03;;;;;;;;;;5097116;28;20360;-81
2022/07/15 09:01:44;;;;;;;3.73;1.00;;;24.00;45.30;;;;;;5095948;28;20105;-81
2022/07/15 09:04:10;;;;;;;1.87;0.80;;;23.60;47.00;;;;;;5097287;28;20048;-79
2022/07/15 09:06:41;;;;;;;4.07;1.47;;;23.60;48.00;;;;;;5097292;28;20047;-79
2022/07/15 09:09:29;;;;;;;2.73;0.90;;;23.80;48.80;;;;;;5097223;28;20044;-85
2022/07/15 09:12:07;;;;;;;2.43;0.93;;;24.20;48.20;;;;;;5095625;28;20090;-79
2022/07/15 09:14:36;;;;;;;4.90;1.00;;;24.30;47.80;;;;;;5097888;28;20044;-76
2022/07/15 09:17:11;;;;;;;4.57;1.00;;;24.50;47.90;;;;;;5095789;28;20079;-77
2022/07/15 09:20:01;;;;;;;3.40;0.90;;;24.20;47.30;;;;;;5096751;28;20051;-79
2022/07/15 09:22:32;;;;;;;2.67;0.90;;;23.90;47.80;;;;;;5078788;28;20132;-78
2022/07/15 09:25:07;;;;;;;3.03;0.83;;;23.90;48.00;;;;;;5097497;28;20048;-78
2022/07/15 09:27:38;;;;;;;2.27;1.00;;;24.10;47.50;;;;;;5096819;28;20095;-77
2022/07/15 09:36:02;;;;;;;3.07;1.10;;;23.80;48.30;;;;;;5095965;28;20501;-77
2022/07/15 09:38:58;;;;;;;3.75;1.05;;;23.60;48.70;;;;;;5096696;28;20040;-82
2022/07/15 09:41:32;;;;;;;3.30;1.23;;;23.40;49.60;;;;;;5095301;28;20104;-78
2022/07/15 09:43:58;;;;;;;3.33;1.13;;;23.30;49.60;;;;;;5097025;28;20054;-76
2022/07/15 09:46:28;;;;;;;4.70;1.00;;;23.30;49.90;;;;;;5095437;28;20048;-76
2022/07/15 09:48:55;;;;;;;3.07;0.93;;;23.30;50.30;;;;;;5095512;28;20052;-76
2022/07/15 09:51:22;;;;;;;5.73;1.00;;;23.20;49.60;;;;;;5096316;28;20048;-75
2022/07/15 09:53:50;;;;;;;3.63;1.00;;;23.10;49.30;;;;;;5096783;28;20063;-75
2022/07/15 09:56:22;;;;;;;1.97;0.90;;;23.10;49.10;;;;;;5097396;28;20044;-75
2022/07/15 09:58:49;;;;;;;3.73;1.00;;;23.10;49.90;;;;;;5096102;28;20044;-75
2022/07/15 10:01:15;;;;;;;2.97;1.00;;;23.00;49.70;;;;;;5096141;28;20196;-75
2022/07/15 10:03:41;;;;;;;3.37;1.03;;;22.80;50.00;;;;;;5096862;28;20043;-74
2022/07/15 10:06:09;;;;;;;3.70;0.77;;;22.70;50.70;;;;;;5095805;28;20131;-68
2022/07/15 10:08:35;;;;;;;3.87;0.97;;;22.60;51.20;;;;;;5096555;28;20043;-73
2022/07/15 10:11:07;;;;;;;3.53;1.30;;;22.70;51.50;;;;;;5095090;28;20392;-73
2022/07/15 10:14:07;;;;;;;4.37;1.00;;;22.80;51.50;;;;;;5096785;28;20074;-73
2022/07/15 10:17:09;;;;;;;3.50;1.17;;;22.80;52.80;;;;;;5096259;28;20102;-72
2022/07/15 10:20:12;;;;;;;3.07;1.03;;;23.10;52.00;;;;;;5095850;28;20131;-71
2022/07/15 10:23:02;;;;;;;2.07;0.80;;;23.20;51.90;;;;;;5095917;28;20130;-73
2022/07/15 10:25:31;;;;;;;3.17;1.00;;;23.40;50.60;;;;;;5096020;28;20105;-69
2022/07/15 10:28:14;;;;;;;2.17;1.07;;;23.40;50.00;;;;;;5095651;28;20044;-68
2022/07/15 10:30:42;;;;;;;2.70;1.00;;;23.30;50.20;;;;;;5095584;28;20052;-68
2022/07/15 10:33:18;;;;;;;2.10;0.90;;;23.30;50.70;;;;;;5095542;28;20083;-67
2022/07/15 10:35:44;;;;;;;4.13;1.03;;;23.30;50.60;;;;;;5096314;28;20043;-67
2022/07/15 10:38:24;;;;;;;3.03;1.00;;;23.20;50.70;;;;;;5095475;28;20510;-67
2022/07/15 10:41:06;;;;;;;2.83;1.10;;;23.20;50.90;;;;;;5095391;28;20081;-68
2022/07/15 10:43:49;;;;;;;3.07;1.00;;;23.20;51.40;;;;;;5095240;28;20052;-67
2022/07/15 10:46:18;;;;;;;3.27;1.30;;;23.10;52.10;;;;;;5095895;28;20377;-67
2022/07/15 10:48:52;;;;;;;3.03;1.00;;;23.00;52.30;;;;;;5095262;28;20047;-67
2022/07/15 10:51:36;;;;;;;5.03;1.13;;;23.00;52.50;;;;;;5095297;28;20048;-67
2022/07/15 10:54:07;;;;;;;2.93;1.10;;;23.00;53.10;;;;;;5095186;28;20410;-68
2022/07/15 10:56:37;;;;;;;3.27;0.90;;;23.00;53.10;;;;;;5095688;28;20481;-68
2022/07/15 10:59:19;;;;;;;2.37;0.90;;;23.10;53.40;;;;;;5095121;28;20118;-67
2022/07/15 11:01:48;;;;;;;3.37;0.90;;;23.10;52.30;;;;;;5094960;28;20086;-71
2022/07/15 11:04:25;;;;;;;3.53;1.10;;;23.00;52.50;;;;;;5094949;28;20117;-68
2022/07/15 11:09:54;;;;;;;7.27;1.20;;;22.80;53.10;;;;;;5094099;28;20059;-73
2022/07/15 11:12:21;;;;;;;4.23;1.10;;;22.80;53.40;;;;;;5094855;28;20040;-73
2022/07/15 11:15:04;;;;;;;6.20;1.13;;;22.80;53.00;;;;;;5094673;28;20571;-71
2022/07/15 11:17:29;;;;;;;2.83;1.00;;;22.80;53.60;;;;;;5094800;28;20051;-71
2022/07/15 11:19:57;;;;;;;4.97;1.30;;;22.70;53.80;;;;;;5094900;28;20052;-74
2022/07/15 11:22:26;;;;;;;3.77;1.40;;;22.60;54.00;;;;;;5094617;28;20040;-70
2022/07/15 11:24:55;;;;;;;3.73;1.10;;;22.50;54.40;;;;;;5094626;28;20048;-68
2022/07/15 11:27:22;;;;;;;4.77;1.30;;;22.40;54.90;;;;;;5094548;28;20044;-72
2022/07/15 11:29:48;;;;;;;3.53;1.00;;;22.40;55.40;;;;;;5094496;28;20091;-71
2022/07/15 11:32:16;;;;;;;4.80;1.20;;;22.50;55.30;;;;;;5094949;28;20071;-76
2022/07/15 11:34:45;;;;;;;4.57;1.10;;;22.50;55.20;;;;;;5094399;28;20048;-73
2022/07/15 11:37:11;;;;;;;6.30;1.40;;;22.60;55.50;;;;;;5093354;28;20495;-72
2022/07/15 11:39:38;;;;;;;4.80;1.20;;;22.60;55.80;;;;;;5094333;28;20055;-72
2022/07/15 11:44:50;;;;;;;5.30;1.40;;;22.50;56.50;;;;;;5094812;28;20052;-72
2022/07/15 11:47:16;;;;;;;2.97;1.20;;;22.40;57.30;;;;;;5094210;28;20126;-72
2022/07/15 11:49:43;;;;;;;4.13;1.10;;;22.40;57.30;;;;;;5093127;28;20036;-73
2022/07/15 11:52:24;;;;;;;3.30;1.03;;;22.40;57.80;;;;;;5092852;28;20070;-73
2022/07/15 11:54:50;;;;;;;3.57;1.10;;;22.50;57.80;;;;;;5093795;28;20559;-73
2022/07/15 11:57:16;;;;;;;3.87;1.20;;;22.40;57.80;;;;;;5076166;28;20048;-72
2022/07/15 11:59:55;;;;;;;4.37;1.50;;;22.30;58.50;;;;;;5093216;28;20048;-73
2022/07/15 12:02:24;;;;;;;3.37;1.00;;;22.10;59.00;;;;;;5093881;28;20050;-73
2022/07/15 12:04:51;;;;;;;5.17;1.23;;;21.90;59.40;;;;;;5093835;28;20492;-73
2022/07/15 12:07:16;;;;;;;4.53;1.30;;;21.80;60.00;;;;;;5093836;28;20055;-72
2022/07/15 12:09:48;;;;;;;4.30;1.40;;;21.70;61.00;;;;;;5094173;28;20044;-73
2022/07/15 12:12:14;;;;;;;3.30;1.40;;;21.70;61.70;;;;;;5094026;28;20044;-73
2022/07/15 12:14:42;;;;;;;3.03;1.07;;;21.70;61.40;;;;;;5092771;28;20048;-72
2022/07/15 12:17:09;;;;;;;2.77;1.17;;;21.70;62.00;;;;;;5093739;28;20544;-73
2022/07/15 12:19:35;;;;;;;4.87;1.70;;;21.90;61.80;;;;;;5093559;28;20126;-77
2022/07/15 12:22:07;;;;;;;5.13;1.83;;;22.10;61.20;;;;;;5094220;28;20032;-73
2022/07/15 12:24:52;;;;;;;3.33;1.07;;;22.10;61.10;;;;;;5093485;28;20480;-76
2022/07/15 12:27:31;;;;;;;3.93;1.30;;;22.10;61.10;;;;;;5092787;28;20059;-77
2022/07/15 12:30:08;;;;;;;3.97;1.20;;;22.10;61.40;;;;;;5093235;28;20080;-74
2022/07/15 12:32:34;;;;;;;5.83;1.40;;;22.20;62.20;;;;;;5093310;28;20392;-82
2022/07/15 12:35:01;;;;;;;5.93;1.50;;;22.20;62.40;;;;;;5092171;28;20097;-78
2022/07/15 12:37:47;;;;;;;5.43;1.33;;;22.10;62.80;;;;;;5093152;28;20052;-75
2022/07/15 12:40:20;;;;;;;3.50;1.20;;;22.10;63.10;;;;;;5093020;28;20051;-77
2022/07/15 12:42:49;;;;;;;3.40;1.37;;;22.00;63.40;;;;;;5094017;28;20048;-78
2022/07/15 12:45:17;;;;;;;5.97;1.27;;;22.00;64.00;;;;;;5091732;28;20470;-81
2022/07/15 12:48:05;;;;;;;4.07;1.43;;;22.10;64.10;;;;;;5092932;28;20055;-75
2022/07/15 12:50:47;;;;;;;4.53;1.37;;;22.10;64.70;;;;;;5093676;28;20067;-72
2022/07/15 12:53:13;;;;;;;6.67;1.37;;;22.10;65.00;;;;;;5093689;28;20075;-72
2022/07/15 12:55:50;;;;;;;6.40;1.33;;;22.20;64.40;;;;;;5092929;28;20131;-73
2022/07/15 12:58:17;;;;;;;5.00;1.37;;;22.20;63.60;;;;;;5093141;28;20105;-73
2022/07/15 13:00:45;;;;;;;4.50;1.40;;;22.20;63.80;;;;;;5092254;28;20134;-74
2022/07/15 13:03:22;;;;;;;3.37;1.63;;;22.20;64.30;;;;;;5093569;28;20037;-73
2022/07/15 13:05:50;;;;;;;4.57;1.20;;;22.40;64.00;;;;;;5093525;28;20048;-73
2022/07/15 13:08:29;;;;;;;5.27;1.40;;;22.40;63.80;;;;;;5092985;28;20122;-73
2022/07/15 13:10:58;;;;;;;3.93;1.30;;;22.30;63.80;;;;;;5092271;28;20056;-74
2022/07/15 13:13:25;;;;;;;4.70;1.40;;;22.20;63.90;;;;;;5093441;28;20476;-73